createdAt,value
2023-05-14T00:00:46.521Z,102063.53
2023-05-14T00:03:14.420Z,102074.13
2023-05-14T00:05:41.924Z,102072.78
2023-05-14T00:08:09.331Z,102071.38
2023-05-14T00:10:38.135Z,102075.00
2023-05-14T00:13:05.857Z,102067.78
2023-05-14T00:15:34.302Z,102062.31
2023-05-14T00:18:02.481Z,102061.75
2023-05-14T00:20:30.316Z,102069.94
2023-05-14T00:22:57.578Z,102056.81
2023-05-14T00:25:25.038Z,102070.75
2023-05-14T00:27:53.855Z,102064.53
2023-05-14T00:30:21.662Z,102068.16
2023-05-14T00:32:52.157Z,102064.38
2023-05-14T00:35:20.025Z,102075.53
2023-05-14T00:37:47.593Z,102069.25
2023-05-14T00:40:15.656Z,102064.22
2023-05-14T00:42:43.251Z,102066.38
2023-05-14T00:45:13.251Z,102062.78
2023-05-14T00:47:41.023Z,102060.25
2023-05-14T00:50:09.554Z,102062.38
2023-05-14T00:52:38.002Z,102071.03
2023-05-14T00:55:06.978Z,102067.00
2023-05-14T00:57:35.364Z,102067.91
2023-05-14T01:00:07.804Z,102061.09
2023-05-14T01:02:38.259Z,102066.72
2023-05-14T01:05:06.630Z,102072.13
2023-05-14T01:07:39.760Z,102067.69
2023-05-14T01:10:13.609Z,102072.03
2023-05-14T01:12:52.341Z,102067.91
2023-05-14T01:15:21.793Z,102059.97
2023-05-14T01:17:54.493Z,102068.28
2023-05-14T01:20:22.461Z,102064.84
2023-05-14T01:22:51.802Z,102070.44
2023-05-14T01:25:19.558Z,102064.31
2023-05-14T01:27:53.035Z,102070.28
2023-05-14T01:30:27.779Z,102064.31
2023-05-14T01:32:59.275Z,102063.50
2023-05-14T01:35:28.446Z,102064.91
2023-05-14T01:38:02.673Z,102055.44
2023-05-14T01:40:31.752Z,102057.00
2023-05-14T01:42:59.649Z,102056.69
2023-05-14T01:45:27.130Z,102051.38
2023-05-14T01:47:54.663Z,102045.91
2023-05-14T01:50:22.170Z,102046.38
2023-05-14T01:52:49.600Z,102047.75
2023-05-14T01:55:18.644Z,102049.78
2023-05-14T01:57:46.375Z,102042.41
2023-05-14T02:00:14.388Z,102044.19
2023-05-14T02:02:41.644Z,102043.72
2023-05-14T02:05:12.868Z,102041.38
2023-05-14T02:07:40.439Z,102038.53
2023-05-14T02:10:11.419Z,102036.94
2023-05-14T02:12:40.299Z,102039.16
2023-05-14T02:15:08.687Z,102039.19
2023-05-14T02:17:36.760Z,102029.41
2023-05-14T02:20:05.085Z,102031.94
2023-05-14T02:22:32.717Z,102030.84
2023-05-14T02:25:00.365Z,102036.94
2023-05-14T02:27:27.773Z,102028.81
2023-05-14T02:29:56.473Z,102017.50
2023-05-14T02:32:23.968Z,102020.19
2023-05-14T02:34:51.293Z,102007.75
2023-05-14T02:37:18.829Z,102005.38
2023-05-14T02:39:47.187Z,102007.59
2023-05-14T02:42:16.444Z,102015.28
2023-05-14T02:44:43.746Z,102019.25
2023-05-14T02:47:14.552Z,102024.41
2023-05-14T02:49:42.097Z,102015.91
2023-05-14T02:52:09.615Z,102011.38
2023-05-14T02:54:38.387Z,102012.16
2023-05-14T02:57:05.795Z,102012.78
2023-05-14T02:59:33.448Z,102010.88
2023-05-14T03:02:01.498Z,102013.41
2023-05-14T03:04:33.257Z,102013.56
2023-05-14T03:07:00.658Z,102009.66
2023-05-14T03:09:28.235Z,102009.19
2023-05-14T03:11:57.211Z,102007.59
2023-05-14T03:14:24.635Z,102013.44
2023-05-14T03:16:52.970Z,102002.44
2023-05-14T03:19:20.271Z,102007.13
2023-05-14T03:21:49.139Z,102006.97
2023-05-14T03:24:16.908Z,102004.00
2023-05-14T03:26:46.542Z,102002.88
2023-05-14T03:29:14.131Z,102003.66
2023-05-14T03:31:41.563Z,102003.78
2023-05-14T03:34:09.181Z,102006.78
2023-05-14T03:36:36.608Z,102003.78
2023-05-14T03:39:05.598Z,102019.06
2023-05-14T03:41:33.139Z,102016.72
2023-05-14T03:44:00.613Z,102012.16
2023-05-14T03:46:28.197Z,102005.88
2023-05-14T03:48:56.755Z,102013.41
2023-05-14T03:51:24.758Z,102019.06
2023-05-14T03:53:52.148Z,102017.00
2023-05-14T03:56:22.185Z,102010.28
2023-05-14T03:58:49.585Z,102006.44
2023-05-14T04:01:17.065Z,102006.16
2023-05-14T04:03:44.565Z,102006.09
2023-05-14T04:06:14.550Z,102010.72
2023-05-14T04:08:42.035Z,102014.63
2023-05-14T04:11:09.758Z,102004.31
2023-05-14T04:13:38.481Z,102003.28
2023-05-14T04:16:06.376Z,101996.78
2023-05-14T04:18:34.069Z,101998.09
2023-05-14T04:21:01.655Z,102000.63
2023-05-14T04:23:29.090Z,102000.34
2023-05-14T04:25:56.643Z,101992.56
2023-05-14T04:28:24.008Z,102007.41
2023-05-14T04:30:53.121Z,102006.09
2023-05-14T04:33:22.520Z,101998.91
2023-05-14T04:35:50.046Z,101997.66
2023-05-14T04:38:17.342Z,101995.78
2023-05-14T04:40:44.791Z,101996.75
2023-05-14T04:43:13.024Z,102004.81
2023-05-14T04:45:40.587Z,102005.47
2023-05-14T04:48:09.373Z,102008.13
2023-05-14T04:50:38.802Z,102001.06
2023-05-14T04:53:06.484Z,102007.03
2023-05-14T04:55:33.825Z,102008.66
2023-05-14T04:58:01.171Z,102006.91
2023-05-14T05:00:28.655Z,102006.41
2023-05-14T05:02:56.318Z,102005.94
2023-05-14T05:05:27.255Z,102004.69
2023-05-14T05:07:55.130Z,102007.22
2023-05-14T05:10:26.422Z,102003.63
2023-05-14T05:12:54.063Z,102006.78
2023-05-14T05:15:21.461Z,102003.19
2023-05-14T05:17:49.006Z,102000.03
2023-05-14T05:20:17.777Z,102001.09
2023-05-14T05:22:47.003Z,102000.56
2023-05-14T05:25:15.286Z,101991.22
2023-05-14T05:27:43.274Z,101988.56
2023-05-14T05:30:14.591Z,101997.69
2023-05-14T05:32:42.370Z,101990.97
2023-05-14T05:35:10.018Z,102003.94
2023-05-14T05:37:41.276Z,101992.34
2023-05-14T05:40:10.804Z,101992.06
2023-05-14T05:42:38.151Z,101987.44
2023-05-14T05:45:06.980Z,101984.50
2023-05-14T05:47:34.818Z,101989.59
2023-05-14T05:50:02.382Z,101983.16
2023-05-14T05:52:31.849Z,101981.44
2023-05-14T05:54:59.306Z,101981.63
2023-05-14T05:57:28.072Z,101980.75
2023-05-14T05:59:55.459Z,101983.81
2023-05-14T06:02:24.420Z,101980.81
2023-05-14T06:04:51.950Z,101980.50
2023-05-14T06:07:19.720Z,101981.44
2023-05-14T06:09:47.356Z,101981.88
2023-05-14T06:12:16.147Z,101989.59
2023-05-14T06:14:52.566Z,101986.44
2023-05-14T06:17:20.696Z,101988.78
2023-05-14T06:19:49.847Z,101988.06
2023-05-14T06:22:18.064Z,102005.31
2023-05-14T06:24:45.402Z,102000.09
2023-05-14T06:27:12.755Z,101993.00
2023-05-14T06:29:40.267Z,101991.53
2023-05-14T06:32:09.999Z,101991.34
2023-05-14T06:34:38.519Z,101998.25
2023-05-14T06:37:06.241Z,101987.47
2023-05-14T06:39:33.652Z,101990.56
2023-05-14T06:42:01.373Z,101991.47
2023-05-14T06:44:31.531Z,101993.91
2023-05-14T06:47:02.942Z,101985.38
2023-05-14T06:49:34.341Z,101993.31
2023-05-14T06:52:01.772Z,101993.13
2023-05-14T06:54:29.565Z,101986.75
2023-05-14T06:56:57.563Z,101994.91
2023-05-14T06:59:24.796Z,102001.59
2023-05-14T07:01:52.746Z,101988.94
2023-05-14T07:04:20.273Z,101976.94
2023-05-14T07:06:50.323Z,101978.47
2023-05-14T07:09:18.193Z,101974.88
2023-05-14T07:11:46.094Z,101970.81
2023-05-14T07:14:13.392Z,101970.56
2023-05-14T07:16:40.785Z,101970.56
2023-05-14T07:19:08.395Z,101965.38
2023-05-14T07:21:35.892Z,101965.13
2023-05-14T07:24:05.381Z,101965.59
2023-05-14T07:26:32.861Z,101970.28
2023-05-14T07:29:00.205Z,101974.13
2023-05-14T07:31:27.729Z,101964.59
2023-05-14T07:33:55.114Z,101962.53
2023-05-14T07:36:23.159Z,101967.72
2023-05-14T07:38:50.596Z,101954.69
2023-05-14T07:41:19.843Z,101952.38
2023-05-14T07:43:47.128Z,101945.28
2023-05-14T07:46:14.744Z,101934.94
2023-05-14T07:48:42.077Z,101948.47
2023-05-14T07:51:12.099Z,101932.44
2023-05-14T07:53:39.915Z,101947.13
2023-05-14T07:56:08.259Z,101957.22
2023-05-14T07:58:36.889Z,101939.78
2023-05-14T08:01:07.148Z,101945.78
2023-05-14T08:03:34.783Z,101933.84
2023-05-14T08:06:02.199Z,101932.31
2023-05-14T08:08:29.748Z,101937.75
2023-05-14T08:10:57.121Z,101930.97
2023-05-14T08:13:24.579Z,101921.38
2023-05-14T08:15:53.209Z,101906.78
2023-05-14T08:18:23.258Z,101913.16
2023-05-14T08:20:51.799Z,101917.97
2023-05-14T08:23:21.194Z,101919.59
2023-05-14T08:25:48.844Z,101915.28
2023-05-14T08:28:16.228Z,101913.38
2023-05-14T08:30:43.697Z,101904.88
2023-05-14T08:33:12.470Z,101909.53
2023-05-14T08:35:39.761Z,101896.69
2023-05-14T08:38:07.133Z,101895.94
2023-05-14T08:40:35.150Z,101888.00
2023-05-14T08:43:04.075Z,101890.50
2023-05-14T08:45:34.497Z,101892.47
2023-05-14T08:48:07.253Z,101909.38
2023-05-14T08:50:38.990Z,101899.41
2023-05-14T08:53:08.454Z,101886.44
2023-05-14T08:55:37.275Z,101884.94
2023-05-14T08:58:04.700Z,101891.47
2023-05-14T09:00:32.105Z,101876.50
2023-05-14T09:03:00.644Z,101887.47
2023-05-14T09:05:28.150Z,101853.78
2023-05-14T09:07:57.023Z,101840.25
2023-05-14T09:10:24.507Z,101842.53
2023-05-14T09:12:52.052Z,101861.47
2023-05-14T09:15:19.482Z,101863.72
2023-05-14T09:17:46.993Z,101848.91
2023-05-14T09:20:15.922Z,101863.75
2023-05-14T09:22:43.280Z,101844.53
2023-05-14T09:25:12.584Z,101831.28
2023-05-14T09:27:39.853Z,101838.28
2023-05-14T09:30:09.672Z,101842.75
2023-05-14T09:32:38.751Z,101827.44
2023-05-14T09:35:14.136Z,101823.25
2023-05-14T09:37:42.778Z,101814.03
2023-05-14T09:40:14.303Z,101801.56
2023-05-14T09:42:45.439Z,101806.91
2023-05-14T09:45:12.961Z,101798.38
2023-05-14T09:47:40.719Z,101805.91
2023-05-14T09:50:09.034Z,101795.50
2023-05-14T09:52:38.048Z,101798.19
2023-05-14T09:55:06.317Z,101779.88
2023-05-14T09:57:35.116Z,101804.03
2023-05-14T10:00:02.691Z,101771.53
2023-05-14T10:02:36.567Z,101788.97
2023-05-14T10:05:05.503Z,101819.50
2023-05-14T10:07:38.617Z,101827.00
2023-05-14T10:10:10.591Z,101821.88
2023-05-14T10:12:41.140Z,101802.47
2023-05-14T10:15:16.610Z,101811.88
2023-05-14T10:17:49.785Z,101809.03
2023-05-14T10:20:17.431Z,101800.03
2023-05-14T10:22:45.082Z,101794.38
2023-05-14T10:25:12.883Z,101811.72
2023-05-14T10:27:42.346Z,101810.09
2023-05-14T10:30:12.978Z,101817.06
2023-05-14T10:32:40.845Z,101812.75
2023-05-14T10:35:18.477Z,101800.34
2023-05-14T10:37:46.553Z,101785.47
2023-05-14T10:40:14.100Z,101787.28
2023-05-14T10:42:43.832Z,101783.22
2023-05-14T10:45:12.587Z,101768.69
2023-05-14T10:47:42.351Z,101756.44
2023-05-14T10:50:12.348Z,101756.69
2023-05-14T10:52:41.953Z,101770.25
2023-05-14T10:55:12.536Z,101765.97
2023-05-14T10:57:42.598Z,101768.03
2023-05-14T11:00:12.165Z,101769.25
2023-05-14T11:02:41.237Z,101771.56
2023-05-14T11:05:10.800Z,101758.34
2023-05-14T11:07:39.838Z,101751.16
2023-05-14T11:10:09.418Z,101753.44
2023-05-14T11:12:38.160Z,101744.59
2023-05-14T11:15:09.531Z,101749.84
2023-05-14T11:17:38.835Z,101736.84
2023-05-14T11:20:07.080Z,101738.81
2023-05-14T11:22:36.945Z,101733.50
2023-05-14T11:25:05.603Z,101730.22
2023-05-14T11:27:35.092Z,101716.03
2023-05-14T11:30:03.381Z,101727.59
2023-05-14T11:32:33.350Z,101709.88
2023-05-14T11:35:04.296Z,101710.25
2023-05-14T11:37:31.596Z,101710.50
2023-05-14T11:40:00.878Z,101714.34
2023-05-14T11:42:28.581Z,101709.91
2023-05-14T11:44:55.861Z,101714.09
2023-05-14T11:47:23.324Z,101702.31
2023-05-14T11:49:52.997Z,101714.22
2023-05-14T11:52:20.843Z,101694.63
2023-05-14T11:54:49.200Z,101705.50
2023-05-14T11:57:19.216Z,101704.66
2023-05-14T11:59:47.776Z,101700.06
2023-05-14T12:02:17.523Z,101703.56
2023-05-14T12:04:49.519Z,101689.16
2023-05-14T12:07:18.317Z,101663.97
2023-05-14T12:09:46.923Z,101633.38
2023-05-14T12:12:14.317Z,101649.59
2023-05-14T12:14:43.172Z,101660.19
2023-05-14T12:17:12.806Z,101656.50
2023-05-14T12:19:41.318Z,101630.31
2023-05-14T12:22:10.417Z,101633.19
2023-05-14T12:24:39.081Z,101617.88
2023-05-14T12:27:07.213Z,101660.53
2023-05-14T12:29:38.506Z,101661.47
2023-05-14T12:32:09.043Z,101657.78
2023-05-14T12:34:37.836Z,101673.81
2023-05-14T12:37:07.210Z,101643.66
2023-05-14T12:39:35.716Z,101631.94
2023-05-14T12:42:04.453Z,101635.50
2023-05-14T12:44:31.873Z,101644.13
2023-05-14T12:46:59.771Z,101618.56
2023-05-14T12:49:27.348Z,101611.53
2023-05-14T12:52:07.819Z,101593.53
2023-05-14T12:54:42.965Z,101596.13
2023-05-14T12:57:11.745Z,101582.97
2023-05-14T12:59:39.194Z,101583.41
2023-05-14T13:02:07.487Z,101535.09
2023-05-14T13:04:37.750Z,101519.47
2023-05-14T13:07:05.415Z,101516.63
2023-05-14T13:09:34.989Z,101549.34
2023-05-14T13:12:03.597Z,101551.75
2023-05-14T13:14:32.615Z,101510.44
2023-05-14T13:17:00.112Z,101536.59
2023-05-14T13:19:27.785Z,101549.56
2023-05-14T13:22:04.970Z,101513.50
2023-05-14T13:24:32.519Z,101548.63
2023-05-14T13:27:00.400Z,101533.66
2023-05-14T13:29:28.038Z,101534.63
2023-05-14T13:31:59.457Z,101529.91
2023-05-14T13:34:27.679Z,101519.19
2023-05-14T13:36:57.974Z,101531.19
2023-05-14T13:39:25.417Z,101548.72
2023-05-14T13:41:56.757Z,101551.28
2023-05-14T13:44:24.438Z,101537.16
2023-05-14T13:46:59.842Z,101517.81
2023-05-14T13:49:27.812Z,101521.84
2023-05-14T13:51:58.107Z,101527.25
2023-05-14T13:54:27.917Z,101529.31
2023-05-14T13:56:58.772Z,101549.63
2023-05-14T13:59:26.859Z,101542.06
2023-05-14T14:01:54.809Z,101535.84
2023-05-14T14:04:23.929Z,101536.28
2023-05-14T14:06:51.623Z,101534.16
2023-05-14T14:09:19.103Z,101536.25
2023-05-14T14:11:48.880Z,101534.44
2023-05-14T14:14:16.557Z,101536.56
2023-05-14T14:16:47.122Z,101542.47
2023-05-14T14:19:19.043Z,101566.34
2023-05-14T14:21:56.603Z,101544.66
2023-05-14T14:24:24.834Z,101549.84
2023-05-14T14:26:54.959Z,101545.28
2023-05-14T14:29:22.349Z,101540.97
2023-05-14T14:31:49.780Z,101542.19
2023-05-14T14:34:17.203Z,101540.06
2023-05-14T14:36:44.867Z,101550.84
2023-05-14T14:39:13.643Z,101537.38
2023-05-14T14:41:41.284Z,101534.75
2023-05-14T14:44:12.064Z,101531.44
2023-05-14T14:46:39.722Z,101528.16
2023-05-14T14:49:07.104Z,101527.53
2023-05-14T14:51:37.805Z,101514.34
2023-05-14T14:54:07.982Z,101517.38
2023-05-14T14:56:38.044Z,101519.22
2023-05-14T14:59:05.608Z,101525.34
2023-05-14T15:01:33.522Z,101525.63
2023-05-14T15:04:01.055Z,101509.44
2023-05-14T15:06:28.669Z,101506.69
2023-05-14T15:08:56.010Z,101509.97
2023-05-14T15:11:23.696Z,101500.34
2023-05-14T15:13:52.944Z,101513.19
2023-05-14T15:16:23.669Z,101500.28
2023-05-14T15:18:51.342Z,101517.16
2023-05-14T15:21:22.384Z,101510.84
2023-05-14T15:23:51.741Z,101499.91
2023-05-14T15:26:28.818Z,101509.78
2023-05-14T15:28:57.592Z,101490.41
2023-05-14T15:31:27.881Z,101501.72
2023-05-14T15:33:58.583Z,101505.22
2023-05-14T15:36:26.050Z,101505.72
2023-05-14T15:38:55.900Z,101510.63
2023-05-14T15:41:30.784Z,101492.97
2023-05-14T15:44:01.802Z,101493.97
2023-05-14T15:46:29.405Z,101478.06
2023-05-14T15:48:58.087Z,101491.56
2023-05-14T15:51:30.694Z,101488.81
2023-05-14T15:53:58.550Z,101476.03
2023-05-14T15:56:26.230Z,101469.28
2023-05-14T15:58:53.808Z,101480.41
2023-05-14T16:01:22.786Z,101489.50
2023-05-14T16:03:52.326Z,101481.44
2023-05-14T16:06:19.767Z,101478.44
2023-05-14T16:08:49.604Z,101472.69
2023-05-14T16:11:17.442Z,101472.72
2023-05-14T16:13:44.779Z,101453.16
2023-05-14T16:16:12.850Z,101469.69
2023-05-14T16:18:42.208Z,101523.94
2023-05-14T16:21:11.817Z,101536.03
2023-05-14T16:23:43.962Z,101525.66
2023-05-14T16:26:11.457Z,101542.91
2023-05-14T16:28:38.773Z,101527.88
2023-05-14T16:31:06.249Z,101534.94
2023-05-14T16:33:33.488Z,101551.31
2023-05-14T16:36:02.410Z,101553.78
2023-05-14T16:38:29.752Z,101552.59
2023-05-14T16:41:00.276Z,101568.88
2023-05-14T16:43:28.097Z,101619.59
2023-05-14T16:46:01.237Z,101628.50
2023-05-14T16:48:30.214Z,101627.31
2023-05-14T16:50:58.791Z,101639.00
2023-05-14T16:53:27.895Z,101622.44
2023-05-14T16:55:55.723Z,101633.56
2023-05-14T16:58:23.412Z,101609.47
2023-05-14T17:00:51.358Z,101615.69
2023-05-14T17:03:19.166Z,101616.69
2023-05-14T17:05:46.514Z,101617.25
2023-05-14T17:08:17.983Z,101603.78
2023-05-14T17:10:54.094Z,101610.47
2023-05-14T17:13:24.338Z,101595.44
2023-05-14T17:15:51.687Z,101597.56
2023-05-14T17:18:19.332Z,101590.81
2023-05-14T17:20:49.548Z,101591.00
2023-05-14T17:23:16.913Z,101582.13
2023-05-14T17:25:44.375Z,101583.06
2023-05-14T17:28:13.645Z,101568.22
2023-05-14T17:30:44.107Z,101577.13
2023-05-14T17:33:11.413Z,101568.81
2023-05-14T17:35:38.863Z,101566.41
2023-05-14T17:38:06.336Z,101576.75
2023-05-14T17:40:36.536Z,101564.66
2023-05-14T17:43:03.945Z,101579.16
2023-05-14T17:45:42.727Z,101569.84
2023-05-14T17:48:20.043Z,101562.47
2023-05-14T17:50:47.314Z,101579.88
2023-05-14T17:53:14.991Z,101577.91
2023-05-14T17:55:42.347Z,101585.59
2023-05-14T17:58:12.555Z,101573.53
2023-05-14T18:00:44.268Z,101579.63
2023-05-14T18:03:11.947Z,101571.78
2023-05-14T18:05:41.783Z,101575.22
2023-05-14T18:08:09.138Z,101564.78
2023-05-14T18:10:36.599Z,101567.16
2023-05-14T18:13:03.993Z,101565.69
2023-05-14T18:15:31.380Z,101569.63
2023-05-14T18:18:09.709Z,101550.75
2023-05-14T18:20:37.141Z,101559.63
2023-05-14T18:23:04.449Z,101550.72
2023-05-14T18:25:32.084Z,101555.13
2023-05-14T18:27:59.469Z,101550.63
2023-05-14T18:30:28.064Z,101553.44
2023-05-14T18:32:55.318Z,101554.19
2023-05-14T18:35:26.731Z,101554.38
2023-05-14T18:37:54.421Z,101561.22
2023-05-14T18:40:21.726Z,101554.88
2023-05-14T18:42:49.154Z,101556.75
2023-05-14T18:45:16.525Z,101560.97
2023-05-14T18:47:44.013Z,101559.19
2023-05-14T18:50:11.533Z,101557.59
2023-05-14T18:52:40.232Z,101564.31
2023-05-14T18:55:08.384Z,101566.47
2023-05-14T18:57:36.762Z,101557.66
2023-05-14T19:00:04.639Z,101562.72
2023-05-14T19:02:32.077Z,101559.34
2023-05-14T19:04:59.385Z,101560.28
2023-05-14T19:07:26.883Z,101562.06
2023-05-14T19:09:55.507Z,101563.84
2023-05-14T19:12:22.851Z,101568.03
2023-05-14T19:14:50.105Z,101567.03
2023-05-14T19:17:19.243Z,101574.53
2023-05-14T19:19:47.851Z,101583.22
2023-05-14T19:22:15.300Z,101580.34
2023-05-14T19:24:42.838Z,101574.31
2023-05-14T19:27:11.661Z,101581.31
2023-05-14T19:29:39.125Z,101587.22
2023-05-14T19:32:07.564Z,101586.63
2023-05-14T19:34:35.106Z,101580.63
2023-05-14T19:37:03.168Z,101578.50
2023-05-14T19:39:30.616Z,101579.16
2023-05-14T19:41:58.050Z,101570.84
2023-05-14T19:44:26.772Z,101578.13
2023-05-14T19:46:54.291Z,101583.28
2023-05-14T19:49:21.780Z,101576.03
2023-05-14T19:51:49.098Z,101570.84
2023-05-14T19:54:17.348Z,101581.47
2023-05-14T19:56:44.885Z,101586.16
2023-05-14T19:59:12.660Z,101578.63
2023-05-14T20:01:41.474Z,101577.84
2023-05-14T20:04:09.017Z,101578.09
2023-05-14T20:06:36.670Z,101582.22
2023-05-14T20:09:03.873Z,101574.44
2023-05-14T20:11:31.154Z,101574.75
2023-05-14T20:13:58.379Z,101582.53
2023-05-14T20:16:25.881Z,101584.03
2023-05-14T20:18:54.768Z,101590.44
2023-05-14T20:21:22.155Z,101590.81
2023-05-14T20:23:49.432Z,101589.53
2023-05-14T20:26:17.146Z,101581.50
2023-05-14T20:28:44.521Z,101589.19
2023-05-14T20:31:12.259Z,101587.81
2023-05-14T20:33:39.707Z,101586.63
2023-05-14T20:36:09.061Z,101579.59
2023-05-14T20:38:36.707Z,101583.00
2023-05-14T20:41:04.045Z,101586.38
2023-05-14T20:43:31.654Z,101579.69
2023-05-14T20:45:59.187Z,101584.34
2023-05-14T20:48:26.986Z,101588.97
2023-05-14T20:50:57.325Z,101582.72
2023-05-14T20:53:27.200Z,101584.00
2023-05-14T20:55:54.851Z,101581.75
2023-05-14T20:58:22.186Z,101578.84
2023-05-14T21:00:49.807Z,101563.09
2023-05-14T21:03:17.224Z,101568.84
2023-05-14T21:05:44.879Z,101560.19
2023-05-14T21:08:12.181Z,101549.88
2023-05-14T21:10:40.820Z,101563.31
2023-05-14T21:13:08.344Z,101554.75
2023-05-14T21:15:35.876Z,101551.38
2023-05-14T21:18:04.135Z,101552.19
2023-05-14T21:20:31.471Z,101547.53
2023-05-14T21:22:58.739Z,101546.72
2023-05-14T21:25:26.943Z,101547.97
2023-05-14T21:27:56.072Z,101539.25
2023-05-14T21:30:23.509Z,101540.00
2023-05-14T21:32:50.827Z,101536.13
2023-05-14T21:35:18.293Z,101547.63
2023-05-14T21:37:45.670Z,101544.34
2023-05-14T21:40:13.390Z,101549.84
2023-05-14T21:42:40.749Z,101544.25
2023-05-14T21:45:10.514Z,101542.97
2023-05-14T21:47:38.128Z,101532.66
2023-05-14T21:50:09.229Z,101527.59
2023-05-14T21:52:36.981Z,101531.59
2023-05-14T21:55:04.954Z,101542.19
2023-05-14T21:57:34.680Z,101535.63
2023-05-14T22:00:02.328Z,101535.25
2023-05-14T22:02:33.299Z,101530.94
2023-05-14T22:05:00.685Z,101535.16
2023-05-14T22:07:28.060Z,101529.50
2023-05-14T22:09:55.378Z,101529.72
2023-05-14T22:12:22.739Z,101531.66
2023-05-14T22:14:50.389Z,101528.44
2023-05-14T22:17:17.710Z,101523.66
2023-05-14T22:19:46.417Z,101521.75
2023-05-14T22:22:13.704Z,101525.22
2023-05-14T22:24:41.195Z,101522.06
2023-05-14T22:27:08.519Z,101518.19
2023-05-14T22:29:38.149Z,101522.03
2023-05-14T22:32:06.664Z,101520.94
2023-05-14T22:34:34.084Z,101518.69
2023-05-14T22:37:02.851Z,101520.03
2023-05-14T22:39:30.288Z,101516.88
2023-05-14T22:41:57.666Z,101509.31
2023-05-14T22:44:25.800Z,101513.78
2023-05-14T22:46:53.983Z,101501.59
2023-05-14T22:49:21.427Z,101503.47
2023-05-14T22:51:48.692Z,101498.13
2023-05-14T22:54:17.611Z,101495.19
2023-05-14T22:56:45.692Z,101496.34
2023-05-14T22:59:13.170Z,101484.75
2023-05-14T23:01:40.387Z,101496.06
2023-05-14T23:04:07.769Z,101495.75
2023-05-14T23:06:35.365Z,101500.84
2023-05-14T23:09:02.721Z,101507.59
2023-05-14T23:11:31.332Z,101496.75
2023-05-14T23:13:58.707Z,101503.59
2023-05-14T23:16:25.967Z,101496.22
2023-05-14T23:18:53.439Z,101492.97
2023-05-14T23:21:20.940Z,101491.47
2023-05-14T23:23:48.252Z,101489.91
2023-05-14T23:26:15.872Z,101478.75
2023-05-14T23:28:44.714Z,101472.59
2023-05-14T23:31:13.135Z,101468.56
2023-05-14T23:33:40.460Z,101465.72
2023-05-14T23:36:08.555Z,101469.47
2023-05-14T23:38:36.522Z,101475.97
2023-05-14T23:41:04.018Z,101465.69
2023-05-14T23:43:31.353Z,101461.78
2023-05-14T23:46:00.213Z,101459.53
2023-05-14T23:48:27.747Z,101459.50
2023-05-14T23:50:55.164Z,101454.84
2023-05-14T23:53:23.080Z,101451.63
2023-05-14T23:55:50.500Z,101454.34
2023-05-14T23:58:17.925Z,101452.03
